createdAt,value
2018-02-24T00:02:27.061Z,93376.00
2018-02-24T00:04:54.658Z,93371.88
2018-02-24T00:07:22.203Z,93374.35
2018-02-24T00:09:49.747Z,93368.98
2018-02-24T00:12:17.427Z,93371.47
2018-02-24T00:14:44.963Z,93365.27
2018-02-24T00:17:12.518Z,93369.76
2018-02-24T00:19:40.181Z,93369.75
2018-02-24T00:22:07.776Z,93368.63
2018-02-24T00:24:35.322Z,93364.88
2018-02-24T00:27:03.033Z,93361.61
2018-02-24T00:29:30.578Z,93364.11
2018-02-24T00:31:58.127Z,93362.11
2018-02-24T00:34:25.810Z,93351.81
2018-02-24T00:36:53.348Z,93348.09
2018-02-24T00:39:20.898Z,93346.03
2018-02-24T00:41:48.765Z,93346.80
2018-02-24T00:44:16.349Z,93343.53
2018-02-24T00:46:43.884Z,93343.97
2018-02-24T00:49:11.582Z,93339.02
2018-02-24T00:51:39.130Z,93335.75
2018-02-24T00:54:06.685Z,93330.41
2018-02-24T00:56:34.395Z,93329.99
2018-02-24T00:59:01.970Z,93336.19
2018-02-24T01:01:29.544Z,93330.46
2018-02-24T01:03:57.662Z,93327.27
2018-02-24T01:06:25.223Z,93313.30
2018-02-24T01:08:52.755Z,93311.61
2018-02-24T01:11:20.432Z,93305.02
2018-02-24T01:13:47.976Z,93302.17
2018-02-24T01:16:15.537Z,93293.95
2018-02-24T01:18:43.408Z,93287.44
2018-02-24T01:21:11.017Z,93289.58
2018-02-24T01:23:38.592Z,93283.00
2018-02-24T01:26:06.186Z,93285.84
2018-02-24T01:28:33.721Z,93278.39
2018-02-24T01:31:01.271Z,93279.29
2018-02-24T01:33:29.146Z,93276.77
2018-02-24T01:35:56.689Z,93275.97
2018-02-24T01:38:24.246Z,93276.41
2018-02-24T01:40:51.838Z,93273.88
2018-02-24T01:43:19.373Z,93266.06
2018-02-24T01:45:46.918Z,93270.24
2018-02-24T01:48:15.202Z,93271.09
2018-02-24T01:50:42.786Z,93273.13
2018-02-24T01:53:10.326Z,93262.77
2018-02-24T01:55:41.522Z,93264.80
2018-02-24T01:58:09.071Z,93264.33
2018-02-24T02:00:36.639Z,93264.30
2018-02-24T02:03:04.215Z,93264.27
2018-02-24T02:05:31.777Z,93255.20
2018-02-24T02:07:59.328Z,93259.33
2018-02-24T02:10:27.184Z,93253.99
2018-02-24T02:12:54.732Z,93247.86
2018-02-24T02:15:22.280Z,93246.65
2018-02-24T02:17:49.866Z,93251.98
2018-02-24T02:20:17.435Z,93249.52
2018-02-24T02:22:45.031Z,93247.89
2018-02-24T02:25:12.589Z,93242.50
2018-02-24T02:27:40.130Z,93242.50
2018-02-24T02:30:07.818Z,93232.69
2018-02-24T02:32:35.359Z,93226.44
2018-02-24T02:35:02.892Z,93223.52
2018-02-24T02:40:20.625Z,93209.47
2018-02-24T02:42:48.502Z,93203.75
2018-02-24T02:45:16.050Z,93202.95
2018-02-24T02:47:43.599Z,93203.81
2018-02-24T02:50:11.283Z,93196.32
2018-02-24T02:52:38.830Z,93186.02
2018-02-24T02:55:06.376Z,93182.27
2018-02-24T02:57:34.173Z,93189.69
2018-02-24T03:00:01.714Z,93188.05
2018-02-24T03:02:29.274Z,93185.98
2018-02-24T03:04:56.853Z,93191.81
2018-02-24T03:07:24.406Z,93186.48
2018-02-24T03:09:51.950Z,93184.42
2018-02-24T03:12:19.802Z,93183.09
2018-02-24T03:14:47.346Z,93178.14
2018-02-24T03:17:14.914Z,93180.20
2018-02-24T03:19:42.653Z,93181.03
2018-02-24T03:22:10.209Z,93181.88
2018-02-24T03:24:37.785Z,93185.63
2018-02-24T03:27:05.374Z,93184.36
2018-02-24T03:29:32.915Z,93183.95
2018-02-24T03:32:00.479Z,93176.49
2018-02-24T03:34:28.217Z,93178.94
2018-02-24T03:36:55.761Z,93178.55
2018-02-24T03:39:23.302Z,93176.91
2018-02-24T03:41:50.910Z,93176.02
2018-02-24T03:44:18.474Z,93174.34
2018-02-24T03:46:46.055Z,93169.00
2018-02-24T03:49:13.637Z,93168.62
2018-02-24T03:51:41.200Z,93167.32
2018-02-24T03:54:08.746Z,93160.08
2018-02-24T03:56:36.504Z,93165.39
2018-02-24T03:59:04.052Z,93161.67
2018-02-24T04:01:31.620Z,93156.75
2018-02-24T04:03:59.213Z,93156.75
2018-02-24T04:06:26.763Z,93157.16
2018-02-24T04:08:54.322Z,93165.39
2018-02-24T04:11:22.020Z,93162.12
2018-02-24T04:13:49.574Z,93157.26
2018-02-24T04:16:17.124Z,93156.47
2018-02-24T04:18:44.862Z,93156.05
2018-02-24T04:21:12.402Z,93158.09
2018-02-24T04:23:39.950Z,93153.48
2018-02-24T04:26:07.515Z,93156.81
2018-02-24T04:28:35.069Z,93152.75
2018-02-24T04:31:02.679Z,93150.25
2018-02-24T04:33:30.218Z,93152.78
2018-02-24T04:35:57.791Z,93146.63
2018-02-24T04:38:25.490Z,93148.63
2018-02-24T04:40:53.042Z,93148.63
2018-02-24T04:43:20.582Z,93146.12
2018-02-24T04:45:48.170Z,93143.61
2018-02-24T04:48:15.709Z,93140.31
2018-02-24T04:50:43.272Z,93148.16
2018-02-24T04:53:10.837Z,93138.67
2018-02-24T04:55:38.394Z,93134.60
2018-02-24T04:58:05.972Z,93134.67
2018-02-24T05:00:33.543Z,93141.65
2018-02-24T05:03:01.100Z,93137.91
2018-02-24T05:05:28.641Z,93136.67
2018-02-24T05:07:56.245Z,93135.88
2018-02-24T05:10:23.807Z,93132.13
2018-02-24T05:12:51.373Z,93130.92
2018-02-24T05:15:19.091Z,93132.16
2018-02-24T05:17:46.667Z,93132.98
2018-02-24T05:20:14.223Z,93135.43
2018-02-24T05:22:41.800Z,93136.16
2018-02-24T05:25:09.365Z,93131.18
2018-02-24T05:27:36.929Z,93132.03
2018-02-24T05:30:04.637Z,93138.19
2018-02-24T05:32:32.205Z,93138.57
2018-02-24T05:34:59.748Z,93138.12
2018-02-24T05:37:27.652Z,93139.71
2018-02-24T05:39:55.198Z,93142.53
2018-02-24T05:42:22.736Z,93148.25
2018-02-24T05:44:50.314Z,93146.50
2018-02-24T05:47:17.858Z,93149.66
2018-02-24T05:49:45.433Z,93149.90
2018-02-24T05:52:13.033Z,93154.95
2018-02-24T05:54:40.588Z,93153.48
2018-02-24T05:57:08.133Z,93152.47
2018-02-24T05:59:35.722Z,93155.63
2018-02-24T06:02:03.308Z,93155.88
2018-02-24T06:04:30.865Z,93149.97
2018-02-24T06:06:58.634Z,93148.08
2018-02-24T06:09:26.182Z,93142.16
2018-02-24T06:11:53.734Z,93144.97
2018-02-24T06:14:21.302Z,93147.69
2018-02-24T06:16:48.866Z,93145.36
2018-02-24T06:19:16.472Z,93144.27
2018-02-24T06:21:44.051Z,93142.38
2018-02-24T06:24:11.598Z,93139.53
2018-02-24T06:26:39.183Z,93135.84
2018-02-24T06:29:06.782Z,93131.98
2018-02-24T06:31:34.348Z,93125.37
2018-02-24T06:34:01.895Z,93119.34
2018-02-24T06:36:29.651Z,93114.84
2018-02-24T06:38:57.214Z,93111.48
2018-02-24T06:41:24.773Z,93111.76
2018-02-24T06:43:52.379Z,93110.53
2018-02-24T06:46:19.935Z,93106.50
2018-02-24T06:48:47.538Z,93107.02
2018-02-24T06:51:15.423Z,93101.04
2018-02-24T06:53:42.962Z,93094.03
2018-02-24T06:56:10.513Z,93095.10
2018-02-24T06:58:38.108Z,93086.89
2018-02-24T07:01:05.688Z,93078.86
2018-02-24T07:03:33.250Z,93086.20
2018-02-24T07:06:00.840Z,93082.11
2018-02-24T07:08:28.405Z,93086.47
2018-02-24T07:10:55.956Z,93083.78
2018-02-24T07:13:23.554Z,93086.27
2018-02-24T07:15:51.106Z,93088.59
2018-02-24T07:18:18.680Z,93089.50
2018-02-24T07:20:46.289Z,93085.50
2018-02-24T07:23:13.859Z,93083.84
2018-02-24T07:25:41.436Z,93073.92
2018-02-24T07:28:09.182Z,93078.64
2018-02-24T07:30:36.722Z,93079.33
2018-02-24T07:33:04.279Z,93082.15
2018-02-24T07:35:31.859Z,93081.20
2018-02-24T07:37:59.445Z,93079.41
2018-02-24T07:40:27.008Z,93081.19
2018-02-24T07:42:54.695Z,93079.66
2018-02-24T07:45:22.271Z,93087.85
2018-02-24T07:47:49.823Z,93089.41
2018-02-24T07:50:17.568Z,93087.42
2018-02-24T07:52:45.108Z,93088.00
2018-02-24T07:55:12.659Z,93092.34
2018-02-24T07:57:40.473Z,93086.31
2018-02-24T08:00:08.040Z,93089.49
2018-02-24T08:02:35.592Z,93091.84
2018-02-24T08:05:03.174Z,93090.60
2018-02-24T08:07:30.730Z,93097.00
2018-02-24T08:09:58.316Z,93090.77
2018-02-24T08:12:25.900Z,93089.26
2018-02-24T08:14:53.456Z,93093.84
2018-02-24T08:17:21.006Z,93097.39
2018-02-24T08:19:48.736Z,93094.02
2018-02-24T08:22:16.271Z,93095.95
2018-02-24T08:24:43.814Z,93090.53
2018-02-24T08:27:11.677Z,93082.66
2018-02-24T08:29:39.234Z,93085.84
2018-02-24T08:32:06.777Z,93090.39
2018-02-24T08:34:34.400Z,93081.57
2018-02-24T08:37:01.934Z,93086.66
2018-02-24T08:39:29.484Z,93086.64
2018-02-24T08:41:57.219Z,93082.74
2018-02-24T08:44:24.795Z,93078.77
2018-02-24T08:46:52.371Z,93079.41
2018-02-24T08:49:20.057Z,93079.16
2018-02-24T08:51:47.615Z,93083.33
2018-02-24T08:54:15.176Z,93084.02
2018-02-24T08:56:42.790Z,93075.13
2018-02-24T08:59:10.322Z,93080.84
2018-02-24T09:01:37.883Z,93084.00
2018-02-24T09:04:05.620Z,93083.48
2018-02-24T09:06:33.206Z,93088.94
2018-02-24T09:09:00.758Z,93084.39
2018-02-24T09:11:28.523Z,93086.81
2018-02-24T09:13:56.064Z,93087.15
2018-02-24T09:16:23.630Z,93095.54
2018-02-24T09:18:51.571Z,93097.05
2018-02-24T09:21:19.122Z,93102.62
2018-02-24T09:23:46.680Z,93105.70
2018-02-24T09:26:14.249Z,93101.55
2018-02-24T09:28:41.803Z,93098.38
2018-02-24T09:31:09.385Z,93103.77
2018-02-24T09:33:36.942Z,93097.70
2018-02-24T09:36:04.495Z,93097.59
2018-02-24T09:38:32.422Z,93098.88
2018-02-24T09:40:59.971Z,93094.50
2018-02-24T09:43:27.534Z,93098.84
2018-02-24T09:45:55.104Z,93099.69
2018-02-24T09:48:22.667Z,93093.09
2018-02-24T09:50:50.218Z,93093.86
2018-02-24T09:53:17.973Z,93090.52
2018-02-24T09:55:45.515Z,93089.94
2018-02-24T09:58:13.068Z,93090.86
2018-02-24T10:00:42.380Z,93082.20
2018-02-24T10:03:09.941Z,93080.65
2018-02-24T10:05:37.524Z,93074.80
2018-02-24T10:08:05.510Z,93078.48
2018-02-24T10:10:33.065Z,93076.41
2018-02-24T10:13:00.614Z,93072.83
2018-02-24T10:15:28.216Z,93076.45
2018-02-24T10:17:55.780Z,93069.78
2018-02-24T10:20:23.360Z,93073.52
2018-02-24T10:22:51.062Z,93072.92
2018-02-24T10:25:18.623Z,93066.77
2018-02-24T10:27:46.164Z,93065.02
2018-02-24T10:30:13.753Z,93063.38
2018-02-24T10:32:41.330Z,93052.34
2018-02-24T10:35:08.897Z,93054.05
2018-02-24T10:37:36.499Z,93053.44
2018-02-24T10:40:04.062Z,93053.72
2018-02-24T10:42:31.617Z,93054.03
2018-02-24T10:44:59.335Z,93048.38
2018-02-24T10:47:26.979Z,93042.84
2018-02-24T10:49:54.540Z,93043.02
2018-02-24T10:52:22.133Z,93044.44
2018-02-24T10:54:49.692Z,93046.83
2018-02-24T10:57:17.243Z,93042.92
2018-02-24T10:59:44.853Z,93049.03
2018-02-24T11:02:12.428Z,93046.06
2018-02-24T11:04:39.987Z,93049.63
2018-02-24T11:07:07.622Z,93051.09
2018-02-24T11:09:35.213Z,93046.80
2018-02-24T11:12:02.758Z,93042.53
2018-02-24T11:14:30.513Z,93037.13
2018-02-24T11:16:58.096Z,93032.63
2018-02-24T11:19:25.647Z,93039.80
2018-02-24T11:21:53.379Z,93037.31
2018-02-24T11:24:20.946Z,93032.61
2018-02-24T11:26:48.494Z,93031.72
2018-02-24T11:29:16.255Z,93034.63
2018-02-24T11:31:43.831Z,93033.23
2018-02-24T11:34:11.389Z,93027.48
2018-02-24T11:36:39.251Z,93027.66
2018-02-24T11:39:06.803Z,93021.86
2018-02-24T11:41:34.368Z,93018.81
2018-02-24T11:44:02.134Z,93018.05
2018-02-24T11:46:29.700Z,93011.39
2018-02-24T11:48:57.274Z,93010.14
2018-02-24T11:51:25.014Z,93017.00
2018-02-24T11:53:52.592Z,93013.05
2018-02-24T11:56:20.148Z,92998.00
2018-02-24T11:58:47.739Z,92996.83
2018-02-24T12:01:15.306Z,92990.13
2018-02-24T12:03:42.868Z,92986.52
2018-02-24T12:06:10.549Z,92981.55
2018-02-24T12:08:38.105Z,92987.63
2018-02-24T12:11:05.694Z,92979.20
2018-02-24T12:13:33.581Z,92977.52
2018-02-24T12:16:01.130Z,92977.41
2018-02-24T12:18:28.674Z,92982.78
2018-02-24T12:20:56.542Z,92982.54
2018-02-24T12:23:24.116Z,92985.25
2018-02-24T12:25:51.682Z,92983.09
2018-02-24T12:28:19.371Z,92985.17
2018-02-24T12:30:46.938Z,92975.84
2018-02-24T12:33:14.487Z,92969.78
2018-02-24T12:35:42.198Z,92973.37
2018-02-24T12:38:09.760Z,92964.81
2018-02-24T12:40:37.320Z,92962.70
2018-02-24T12:43:04.905Z,92963.13
2018-02-24T12:45:32.453Z,92954.98
2018-02-24T12:48:00.017Z,92955.27
2018-02-24T12:50:27.602Z,92952.83
2018-02-24T12:52:55.188Z,92953.97
2018-02-24T12:55:22.743Z,92955.34
2018-02-24T12:57:50.351Z,92943.80
2018-02-24T13:00:17.928Z,92940.05
2018-02-24T13:02:45.507Z,92936.58
2018-02-24T13:05:13.314Z,92934.84
2018-02-24T13:07:40.886Z,92934.52
2018-02-24T13:10:08.456Z,92930.77
2018-02-24T13:12:36.050Z,92932.94
2018-02-24T13:15:03.647Z,92931.08
2018-02-24T13:17:31.231Z,92929.36
2018-02-24T13:19:58.984Z,92925.19
2018-02-24T13:22:26.579Z,92927.95
2018-02-24T13:24:54.140Z,92923.03
2018-02-24T13:27:21.744Z,92919.39
2018-02-24T13:29:49.307Z,92918.80
2018-02-24T13:32:16.901Z,92912.81
2018-02-24T13:34:44.503Z,92913.66
2018-02-24T13:37:12.095Z,92911.88
2018-02-24T13:39:39.650Z,92910.90
2018-02-24T13:42:07.371Z,92910.45
2018-02-24T13:44:34.973Z,92916.72
2018-02-24T13:47:02.542Z,92915.33
2018-02-24T13:49:30.153Z,92918.01
2018-02-24T13:51:57.710Z,92916.03
2018-02-24T13:54:25.328Z,92911.66
2018-02-24T13:56:53.214Z,92909.96
2018-02-24T13:59:20.773Z,92909.84
2018-02-24T14:01:48.348Z,92906.97
2018-02-24T14:04:16.049Z,92908.72
2018-02-24T14:06:43.631Z,92903.73
2018-02-24T14:09:11.189Z,92908.83
2018-02-24T14:11:38.837Z,92909.30
2018-02-24T14:14:06.432Z,92908.08
2018-02-24T14:16:33.996Z,92906.81
2018-02-24T14:19:01.591Z,92900.88
2018-02-24T14:21:29.164Z,92904.20
2018-02-24T14:23:56.722Z,92906.12
2018-02-24T14:26:24.271Z,92907.72
2018-02-24T14:28:51.844Z,92909.16
2018-02-24T14:31:19.577Z,92909.59
2018-02-24T14:33:47.140Z,92910.13
2018-02-24T14:36:14.715Z,92906.77
2018-02-24T14:38:42.308Z,92908.25
2018-02-24T14:41:09.895Z,92911.73
2018-02-24T14:43:37.447Z,92909.08
2018-02-24T14:46:05.204Z,92911.28
2018-02-24T14:48:32.772Z,92912.87
2018-02-24T14:51:00.376Z,92911.66
2018-02-24T14:53:28.017Z,92917.78
2018-02-24T14:55:55.582Z,92918.08
2018-02-24T14:58:23.153Z,92919.23
2018-02-24T15:00:50.793Z,92923.27
2018-02-24T15:03:18.380Z,92924.68
2018-02-24T15:05:45.953Z,92920.59
2018-02-24T15:08:13.609Z,92920.53
2018-02-24T15:10:42.038Z,92922.20
2018-02-24T15:13:09.651Z,92926.03
2018-02-24T15:15:37.408Z,92930.17
2018-02-24T15:18:04.995Z,92930.77
2018-02-24T15:20:32.567Z,92926.45
2018-02-24T15:23:00.466Z,92925.14
2018-02-24T15:25:28.055Z,92929.98
2018-02-24T15:27:55.635Z,92930.63
2018-02-24T15:30:23.259Z,92932.41
2018-02-24T15:32:50.834Z,92930.80
2018-02-24T15:35:18.674Z,92935.61
2018-02-24T15:37:46.267Z,92933.87
2018-02-24T15:40:13.821Z,92933.97
2018-02-24T15:42:41.395Z,92938.63
2018-02-24T15:45:09.000Z,92940.86
2018-02-24T15:47:36.578Z,92942.73
2018-02-24T15:50:04.168Z,92949.61
2018-02-24T15:52:32.087Z,92955.04
2018-02-24T15:55:00.563Z,92955.45
2018-02-24T15:57:28.128Z,92962.69
2018-02-24T15:59:55.766Z,92965.22
2018-02-24T16:02:23.357Z,92966.04
2018-02-24T16:04:50.913Z,92963.94
2018-02-24T16:07:18.496Z,92968.11
2018-02-24T16:09:46.059Z,92974.67
2018-02-24T16:12:13.652Z,92971.98
2018-02-24T16:14:41.543Z,92977.59
2018-02-24T16:17:09.165Z,92976.00
2018-02-24T16:19:36.723Z,92979.39
2018-02-24T16:22:04.374Z,92989.78
2018-02-24T16:24:31.943Z,92981.51
2018-02-24T16:26:59.520Z,92985.19
2018-02-24T16:29:27.127Z,92985.02
2018-02-24T16:31:54.693Z,92981.47
2018-02-24T16:34:22.272Z,92991.42
2018-02-24T16:36:50.018Z,92991.12
2018-02-24T16:39:17.604Z,92999.05
2018-02-24T16:41:45.192Z,92988.77
2018-02-24T16:44:12.801Z,92991.61
2018-02-24T16:46:40.397Z,92994.92
2018-02-24T16:49:07.995Z,92992.53
2018-02-24T16:51:35.884Z,92993.08
2018-02-24T16:54:03.490Z,93004.22
2018-02-24T16:56:31.064Z,93005.79
2018-02-24T16:58:58.674Z,93006.20
2018-02-24T17:01:26.264Z,93003.44
2018-02-24T17:03:53.845Z,92998.91
2018-02-24T17:06:21.591Z,93003.95
2018-02-24T17:08:49.215Z,93009.97
2018-02-24T17:11:16.785Z,92998.48
2018-02-24T17:13:44.552Z,93001.88
2018-02-24T17:16:12.103Z,93010.27
2018-02-24T17:18:39.683Z,93010.76
2018-02-24T17:21:07.323Z,93016.12
2018-02-24T17:23:34.854Z,93012.83
2018-02-24T17:26:02.420Z,93007.83
2018-02-24T17:28:30.055Z,93007.05
2018-02-24T17:30:57.658Z,93000.36
2018-02-24T17:33:25.209Z,93011.55
2018-02-24T17:35:52.820Z,93013.53
2018-02-24T17:38:20.418Z,93014.89
2018-02-24T17:40:47.996Z,93020.30
2018-02-24T17:43:15.742Z,93021.25
2018-02-24T17:45:43.304Z,93025.08
2018-02-24T17:48:10.873Z,93026.33
2018-02-24T17:50:38.482Z,93031.77
2018-02-24T17:53:06.046Z,93032.55
2018-02-24T17:55:33.613Z,93033.34
2018-02-24T17:58:01.244Z,93037.10
2018-02-24T18:00:28.807Z,93041.60
2018-02-24T18:02:56.428Z,93037.63
2018-02-24T18:05:24.177Z,93045.06
2018-02-24T18:07:51.731Z,93045.92
2018-02-24T18:10:19.316Z,93048.52
2018-02-24T18:12:47.036Z,93053.55
2018-02-24T18:15:14.608Z,93053.61
2018-02-24T18:17:42.161Z,93058.08
2018-02-24T18:20:09.931Z,93058.98
2018-02-24T18:22:37.501Z,93064.37
2018-02-24T18:25:05.088Z,93065.23
2018-02-24T18:27:32.639Z,93070.61
2018-02-24T18:30:00.200Z,93073.45
2018-02-24T18:32:27.804Z,93074.32
2018-02-24T18:34:55.372Z,93079.30
2018-02-24T18:37:22.922Z,93086.22
2018-02-24T18:39:50.669Z,93087.08
2018-02-24T18:42:18.232Z,93092.03
2018-02-24T18:44:45.782Z,93097.46
2018-02-24T18:47:13.567Z,93096.33
2018-02-24T18:49:41.116Z,93103.48
2018-02-24T18:52:08.702Z,93103.98
2018-02-24T18:54:36.404Z,93104.02
2018-02-24T18:57:04.011Z,93108.56
2018-02-24T18:59:31.586Z,93111.41
2018-02-24T19:01:59.354Z,93109.38
2018-02-24T19:04:26.916Z,93111.16
2018-02-24T19:06:54.486Z,93114.88
2018-02-24T19:09:22.089Z,93112.40
2018-02-24T19:11:49.699Z,93114.46
2018-02-24T19:14:18.448Z,93110.37
2018-02-24T19:16:46.244Z,93113.70
2018-02-24T19:19:14.793Z,93111.73
2018-02-24T19:21:42.343Z,93119.98
2018-02-24T19:24:10.085Z,93116.77
2018-02-24T19:26:37.736Z,93114.23
2018-02-24T19:29:05.372Z,93118.00
2018-02-24T19:31:32.968Z,93116.83
2018-02-24T19:34:00.594Z,93119.80
2018-02-24T19:36:28.176Z,93116.92
2018-02-24T19:38:56.146Z,93123.57
2018-02-24T19:41:23.787Z,93128.13
2018-02-24T19:43:51.365Z,93128.57
2018-02-24T19:46:19.254Z,93133.13
2018-02-24T19:48:46.824Z,93125.30
2018-02-24T19:51:14.411Z,93128.24
2018-02-24T19:53:42.150Z,93135.72
2018-02-24T19:56:09.831Z,93140.69
2018-02-24T19:58:37.473Z,93137.05
2018-02-24T20:01:05.273Z,93142.00
2018-02-24T20:03:32.898Z,93146.15
2018-02-24T20:06:00.503Z,93143.21
2018-02-24T20:08:28.170Z,93147.00
2018-02-24T20:10:55.758Z,93142.93
2018-02-24T20:13:23.382Z,93143.31
2018-02-24T20:15:51.293Z,93142.03
2018-02-24T20:18:18.890Z,93148.27
2018-02-24T20:20:46.456Z,93150.69
2018-02-24T20:23:14.200Z,93151.14
2018-02-24T20:25:41.858Z,93156.48
2018-02-24T20:28:09.484Z,93156.11
2018-02-24T20:30:37.116Z,93163.16
2018-02-24T20:33:04.675Z,93162.73
2018-02-24T20:35:32.240Z,93166.92
2018-02-24T20:37:59.975Z,93172.27
2018-02-24T20:40:27.539Z,93171.13
2018-02-24T20:42:55.128Z,93177.34
2018-02-24T20:45:23.117Z,93176.07
2018-02-24T20:47:50.682Z,93173.98
2018-02-24T20:50:18.273Z,93180.22
2018-02-24T20:52:46.248Z,93179.83
2018-02-24T20:55:14.026Z,93180.70
2018-02-24T20:57:41.643Z,93183.23
2018-02-24T21:00:09.270Z,93179.89
2018-02-24T21:02:36.877Z,93185.69
2018-02-24T21:05:04.462Z,93192.27
2018-02-24T21:07:32.108Z,93189.41
2018-02-24T21:09:59.724Z,93188.23
2018-02-24T21:12:27.302Z,93188.70
2018-02-24T21:14:55.104Z,93196.22
2018-02-24T21:17:22.670Z,93202.47
2018-02-24T21:19:50.219Z,93201.72
2018-02-24T21:22:18.094Z,93206.28
2018-02-24T21:24:45.685Z,93205.15
2018-02-24T21:27:13.246Z,93207.63
2018-02-24T21:29:40.973Z,93212.23
2018-02-24T21:32:08.550Z,93213.95
2018-02-24T21:34:36.136Z,93212.72
2018-02-24T21:37:04.024Z,93211.11
2018-02-24T21:39:31.593Z,93219.77
2018-02-24T21:41:59.143Z,93213.19
2018-02-24T21:44:26.885Z,93222.64
2018-02-24T21:46:54.458Z,93222.64
2018-02-24T21:49:22.010Z,93223.06
2018-02-24T21:51:49.971Z,93220.59
2018-02-24T21:54:17.527Z,93224.71
2018-02-24T21:56:45.155Z,93223.50
2018-02-24T21:59:12.787Z,93225.57
2018-02-24T22:01:40.344Z,93233.81
2018-02-24T22:04:07.941Z,93234.67
2018-02-24T22:06:35.828Z,93235.05
2018-02-24T22:09:03.486Z,93228.89
2018-02-24T22:11:31.075Z,93247.41
2018-02-24T22:13:58.678Z,93249.05
2018-02-24T22:16:26.243Z,93247.45
2018-02-24T22:18:53.808Z,93249.10
2018-02-24T22:21:21.552Z,93254.83
2018-02-24T22:23:49.115Z,93260.61
2018-02-24T22:26:16.687Z,93268.41
2018-02-24T22:28:44.382Z,93270.48
2018-02-24T22:31:11.950Z,93263.10
2018-02-24T22:33:39.515Z,93270.50
2018-02-24T22:36:07.101Z,93274.25
2018-02-24T22:38:34.671Z,93271.84
2018-02-24T22:41:02.253Z,93271.84
2018-02-24T22:43:30.001Z,93280.86
2018-02-24T22:45:57.567Z,93285.39
2018-02-24T22:48:30.598Z,93285.78
2018-02-24T22:50:58.539Z,93291.54
2018-02-24T22:53:26.095Z,93285.80
2018-02-24T22:55:53.696Z,93295.23
2018-02-24T22:58:21.310Z,93290.73
2018-02-24T23:00:49.102Z,93285.81
2018-02-24T23:03:16.673Z,93290.73
2018-02-24T23:05:44.392Z,93291.56
2018-02-24T23:08:11.956Z,93289.10
2018-02-24T23:10:39.522Z,93288.30
2018-02-24T23:13:07.139Z,93290.75
2018-02-24T23:15:34.709Z,93288.69
2018-02-24T23:18:02.263Z,93298.13
2018-02-24T23:20:29.866Z,93284.98
2018-02-24T23:22:57.440Z,93294.45
2018-02-24T23:25:24.991Z,93295.25
2018-02-24T23:27:52.556Z,93310.03
2018-02-24T23:30:20.109Z,93307.56
2018-02-24T23:32:47.707Z,93310.86
2018-02-24T23:35:15.265Z,93316.60
2018-02-24T23:37:42.821Z,93315.37
2018-02-24T23:40:10.729Z,93319.88
2018-02-24T23:42:38.307Z,93324.37
2018-02-24T23:45:05.868Z,93326.44
2018-02-24T23:47:33.583Z,93326.84
2018-02-24T23:50:01.130Z,93329.70
2018-02-24T23:52:28.702Z,93330.53
2018-02-24T23:54:56.296Z,93328.87
2018-02-24T23:57:23.853Z,93329.67
2018-02-24T23:59:51.411Z,93330.08
